Time;durP1;ratioP1;P1;durP2;ratioP2;P2;SDS_P1;SDS_P2;PMS_P1;PMS_P2;Temp;Humidity;BMP_temperature;BMP_pressure;BME280_temperature;BME280_humidity;BME280_pressure;Samples;Min_cycle;Max_cycle;Signal;HPM_P1;HPM_P2
2022/08/25 00:01:19;;;;;;;2.88;1.80;;;;;;;17.71;66.25;100800.84;5031045;28;20041;-55
2022/08/25 00:03:46;;;;;;;1.92;1.48;;;;;;;17.61;66.74;100801.56;5032587;28;20510;-55
2022/08/25 00:06:13;;;;;;;2.33;1.67;;;;;;;17.87;65.85;100794.56;5032602;28;20029;-55
2022/08/25 00:08:40;;;;;;;3.03;2.10;;;;;;;17.86;65.65;100785.63;5032807;28;20029;-55
2022/08/25 00:11:10;;;;;;;3.47;1.60;;;;;;;17.85;65.67;100789.41;5032780;28;20030;-55
2022/08/25 00:13:40;;;;;;;5.68;2.38;;;;;;;17.98;64.92;100800.88;5032419;28;20025;-55
2022/08/25 00:16:07;;;;;;;4.57;2.17;;;;;;;18.01;64.60;100786.84;5032287;28;20147;-55
2022/08/25 00:18:33;;;;;;;4.55;1.90;;;;;;;18.14;64.49;100789.94;5032737;28;20060;-56
2022/08/25 00:20:59;;;;;;;4.28;2.05;;;;;;;17.97;64.80;100791.94;5032338;28;20438;-56
2022/08/25 00:23:25;;;;;;;3.88;2.25;;;;;;;18.01;64.71;100803.91;5032116;28;20046;-56
2022/08/25 00:25:52;;;;;;;3.42;2.13;;;;;;;17.83;65.00;100798.88;5032257;28;20026;-56
2022/08/25 00:28:18;;;;;;;3.30;1.65;;;;;;;17.67;66.55;100800.56;5032367;28;20057;-56
2022/08/25 00:30:44;;;;;;;3.42;1.77;;;;;;;17.59;66.67;100809.91;5014889;28;20029;-56
2022/08/25 00:33:11;;;;;;;2.40;1.90;;;;;;;17.43;67.71;100805.41;5031974;28;20025;-56
2022/08/25 00:35:39;;;;;;;3.15;1.98;;;;;;;17.42;67.75;100804.59;5031959;28;20052;-56
2022/08/25 00:38:05;;;;;;;2.65;1.60;;;;;;;17.54;67.20;100812.56;5032071;28;20017;-57
2022/08/25 00:40:31;;;;;;;3.03;1.90;;;;;;;17.68;67.28;100824.66;5032113;28;20029;-57
2022/08/25 00:42:57;;;;;;;3.15;2.03;;;;;;;17.68;67.64;100823.84;5031855;28;20025;-57
2022/08/25 00:45:24;;;;;;;5.28;1.90;;;;;;;17.50;66.91;100819.56;5031957;28;20467;-56
2022/08/25 00:47:50;;;;;;;2.88;1.77;;;;;;;17.34;67.42;100818.56;5032257;28;20411;-56
2022/08/25 00:50:17;;;;;;;2.15;1.67;;;;;;;17.32;67.90;100820.72;5032961;28;20491;-56
2022/08/25 00:52:50;;;;;;;2.45;1.73;;;;;;;17.27;68.52;100817.94;5035877;28;20034;-56
2022/08/25 00:55:39;;;;;;;3.95;1.70;;;;;;;17.21;69.04;100832.44;5054191;28;20091;-57
2022/08/25 00:58:13;;;;;;;1.88;1.40;;;;;;;17.22;68.10;100825.16;5054021;28;20115;-57
2022/08/25 01:00:44;;;;;;;2.50;1.52;;;;;;;16.89;69.39;100829.59;5053917;28;20126;-57
2022/08/25 01:03:11;;;;;;;3.15;1.67;;;;;;;16.58;70.39;100826.38;5070934;28;20502;-57
2022/08/25 01:05:39;;;;;;;3.00;1.50;;;;;;;16.34;71.18;100833.00;5053640;28;20033;-57
2022/08/25 01:08:08;;;;;;;2.22;1.75;;;;;;;16.36;71.89;100841.66;5053989;28;20040;-57
2022/08/25 01:10:37;;;;;;;2.95;1.80;;;;;;;16.41;71.69;100841.75;5053588;28;20028;-57
2022/08/25 01:13:28;;;;;;;3.75;1.83;;;;;;;16.46;71.44;100841.84;5053516;28;20040;-58
2022/08/25 01:15:56;;;;;;;2.00;1.42;;;;;;;16.45;71.45;100834.81;5052950;28;20037;-58
2022/08/25 01:18:23;;;;;;;5.18;2.33;;;;;;;16.56;71.61;100844.72;5053466;28;20033;-57
2022/08/25 01:20:52;;;;;;;4.82;1.70;;;;;;;16.57;70.99;100840.13;5053350;28;20128;-57
2022/08/25 01:23:19;;;;;;;16.40;2.47;;;;;;;16.47;71.12;100850.75;5053051;28;20515;-58
2022/08/25 01:25:52;;;;;;;3.50;1.55;;;;;;;16.31;71.75;100841.56;5053026;28;20505;-58
2022/08/25 01:28:20;;;;;;;1.90;1.33;;;;;;;16.37;72.11;100840.59;5053383;28;20040;-58
2022/08/25 01:30:46;;;;;;;4.40;1.85;;;;;;;16.40;71.95;100845.53;5053332;28;20526;-56
2022/08/25 01:33:12;;;;;;;5.38;1.83;;;;;;;16.20;72.09;100853.25;5042671;28;20384;-57
2022/08/25 01:35:40;;;;;;;12.75;2.65;;;;;;;15.95;73.60;100851.75;5036238;28;20040;-57
2022/08/25 01:38:07;;;;;;;2.92;1.73;;;;;;;15.81;74.46;100850.38;5035319;28;20033;-57
2022/08/25 01:40:36;;;;;;;1.98;1.52;;;;;;;15.62;75.18;100846.19;5034867;28;20481;-56
2022/08/25 01:43:14;;;;;;;2.50;1.48;;;;;;;15.74;75.09;100850.53;5035658;28;20022;-57
2022/08/25 01:45:44;;;;;;;3.58;1.70;;;;;;;15.85;74.83;100846.16;5035214;28;20029;-56
2022/08/25 01:48:12;;;;;;;2.45;1.50;;;;;;;15.82;75.07;100855.56;5035561;28;20091;-57
2022/08/25 01:50:39;;;;;;;2.85;1.92;;;;;;;15.51;76.28;100851.38;5035129;28;20029;-57
2022/08/25 01:53:08;;;;;;;3.15;1.63;;;;;;;15.55;76.50;100849.84;5035693;28;20033;-57
2022/08/25 01:55:50;;;;;;;2.50;1.70;;;;;;;15.60;76.09;100851.81;5035008;28;20026;-57
2022/08/25 01:58:43;;;;;;;3.17;1.63;;;;;;;15.61;75.74;100849.97;5034873;28;20044;-57
2022/08/25 02:01:14;;;;;;;3.50;1.80;;;;;;;15.50;75.55;100851.63;5032756;28;20038;-56
2022/08/25 02:03:43;;;;;;;2.13;1.60;;;;;;;15.39;75.85;100853.28;5034414;28;20471;-56
2022/08/25 02:06:19;;;;;;;5.68;1.80;;;;;;;15.25;76.84;100844.63;5035101;28;20030;-56
2022/08/25 02:08:49;;;;;;;3.72;2.03;;;;;;;15.20;77.81;100857.16;5034870;28;20360;-56
2022/08/25 02:11:15;;;;;;;5.45;2.40;;;;;;;15.16;77.72;100853.31;5034569;28;20029;-56
2022/08/25 02:13:42;;;;;;;4.15;2.70;;;;;;;15.08;78.88;100856.38;5034616;28;20370;-56
2022/08/25 02:16:14;;;;;;;5.15;2.22;;;;;;;15.13;78.89;100851.09;5034743;28;20467;-56
2022/08/25 02:18:41;;;;;;;3.65;2.00;;;;;;;15.25;78.19;100855.41;5034777;28;20025;-56
2022/08/25 02:21:07;;;;;;;4.88;2.25;;;;;;;15.35;77.97;100857.50;5034875;28;20336;-56
2022/08/25 02:23:33;;;;;;;3.50;2.10;;;;;;;15.29;78.08;100855.75;5034720;28;20053;-57
2022/08/25 02:25:59;;;;;;;4.32;2.08;;;;;;;15.22;77.81;100863.16;5034710;28;20035;-57
2022/08/25 02:28:25;;;;;;;4.97;1.92;;;;;;;15.18;77.69;100859.28;5034596;28;20026;-56
2022/08/25 02:30:51;;;;;;;3.80;2.40;;;;;;;15.20;77.74;100858.00;5034274;28;20128;-56
2022/08/25 02:33:18;;;;;;;3.83;2.50;;;;;;;15.15;77.92;100865.16;5034267;28;20116;-56
2022/08/25 02:35:44;;;;;;;4.00;1.65;;;;;;;15.17;77.56;100861.16;5034207;28;20083;-56
2022/08/25 02:38:11;;;;;;;2.10;1.52;;;;;;;15.08;78.06;100870.66;5034615;28;20029;-56
2022/08/25 02:40:37;;;;;;;3.10;1.80;;;;;;;14.95;78.54;100860.94;5034322;28;20037;-56
2022/08/25 02:43:04;;;;;;;4.32;1.80;;;;;;;14.97;78.48;100875.00;5034033;28;20411;-57
2022/08/25 02:45:31;;;;;;;2.92;1.90;;;;;;;14.86;79.08;100875.00;5034223;28;20029;-57
2022/08/25 02:47:57;;;;;;;3.08;2.00;;;;;;;14.74;79.73;100886.59;5034494;28;20031;-57
2022/08/25 02:50:25;;;;;;;5.30;2.65;;;;;;;14.88;79.46;100880.97;5034158;28;20025;-57
2022/08/25 02:52:51;;;;;;;6.60;2.70;;;;;;;14.85;79.87;100878.75;5033898;28;20033;-57
2022/08/25 02:55:19;;;;;;;5.30;2.80;;;;;;;14.77;80.14;100882.63;5034012;28;20029;-57
2022/08/25 02:57:47;;;;;;;4.72;2.47;;;;;;;14.62;80.94;100877.66;5033949;28;20021;-58
2022/08/25 03:00:15;;;;;;;5.70;2.72;;;;;;;14.71;80.75;100884.38;5033936;28;20101;-56
2022/08/25 03:02:43;;;;;;;3.75;2.10;;;;;;;14.76;80.00;100889.84;5033835;28;20108;-56
2022/08/25 03:05:11;;;;;;;2.95;1.75;;;;;;;14.72;79.71;100890.56;5034083;28;20075;-56
2022/08/25 03:07:37;;;;;;;3.20;1.80;;;;;;;14.76;79.83;100886.34;5033791;28;20058;-57
2022/08/25 03:10:06;;;;;;;3.90;1.95;;;;;;;14.81;78.99;100885.66;5033916;28;20033;-56
2022/08/25 03:12:32;;;;;;;2.75;1.63;;;;;;;14.63;79.70;100889.25;5033536;28;20443;-55
2022/08/25 03:14:58;;;;;;;1.90;1.63;;;;;;;14.64;79.82;100890.91;5033618;28;20029;-55
2022/08/25 03:17:25;;;;;;;3.25;1.95;;;;;;;14.73;78.90;100894.91;5033715;28;20384;-55
2022/08/25 03:19:51;;;;;;;1.45;1.30;;;;;;;14.60;79.39;100892.41;5033773;28;20061;-55
2022/08/25 03:22:17;;;;;;;1.80;1.70;;;;;;;14.67;79.30;100893.97;5033367;28;20102;-55
2022/08/25 03:24:43;;;;;;;4.78;1.90;;;;;;;14.55;80.01;100900.34;5033668;28;20025;-54
2022/08/25 03:27:09;;;;;;;2.60;1.70;;;;;;;14.55;80.59;100897.66;5033111;28;20060;-55
2022/08/25 03:29:35;;;;;;;2.70;2.00;;;;;;;14.57;80.65;100901.78;5033221;28;20032;-56
2022/08/25 03:32:02;;;;;;;3.30;2.08;;;;;;;14.57;80.45;100906.34;5033230;28;20517;-56
2022/08/25 03:34:29;;;;;;;1.70;1.50;;;;;;;14.59;80.00;100907.75;5033325;28;20021;-55
2022/08/25 03:36:56;;;;;;;3.85;1.50;;;;;;;14.61;79.88;100918.31;5033296;28;20029;-55
2022/08/25 03:39:24;;;;;;;2.30;1.50;;;;;;;14.49;80.40;100916.41;5032969;28;20030;-55
2022/08/25 03:41:51;;;;;;;2.47;1.83;;;;;;;14.58;80.32;100913.38;5032823;28;20112;-55
2022/08/25 03:44:20;;;;;;;2.08;1.88;;;;;;;14.51;80.67;100919.69;5033043;28;20078;-55
2022/08/25 03:46:49;;;;;;;2.50;1.90;;;;;;;14.48;80.80;100919.31;5033054;28;20078;-55
2022/08/25 03:49:19;;;;;;;3.65;2.03;;;;;;;14.47;81.24;100921.19;5033076;28;20021;-55
2022/08/25 03:51:48;;;;;;;2.40;1.70;;;;;;;14.52;80.95;100929.41;5032710;28;20068;-55
2022/08/25 03:54:16;;;;;;;1.73;1.63;;;;;;;14.51;80.70;100930.47;5032743;28;20053;-56
2022/08/25 03:56:43;;;;;;;3.22;1.80;;;;;;;14.51;81.05;100935.84;5033066;28;20021;-56
2022/08/25 03:59:10;;;;;;;2.75;1.90;;;;;;;14.47;81.57;100931.13;5032727;28;20100;-56
2022/08/25 04:01:37;;;;;;;2.10;1.67;;;;;;;14.44;81.11;100934.28;5032675;28;20488;-56
2022/08/25 04:04:05;;;;;;;3.33;2.03;;;;;;;14.40;81.53;100938.47;5032854;28;20072;-56
2022/08/25 04:06:31;;;;;;;3.42;1.98;;;;;;;14.53;81.22;100938.31;5032725;28;20033;-55
2022/08/25 04:08:58;;;;;;;3.30;2.17;;;;;;;14.30;82.44;100938.19;5032850;28;20329;-55
2022/08/25 04:11:25;;;;;;;2.63;1.98;;;;;;;14.33;82.07;100932.38;5032516;28;20028;-55
2022/08/25 04:13:55;;;;;;;4.03;2.00;;;;;;;14.39;82.25;100936.84;5032624;28;20025;-54
2022/08/25 04:16:28;;;;;;;2.80;1.83;;;;;;;14.38;82.27;100943.25;5033242;28;20116;-55
2022/08/25 04:18:55;;;;;;;2.50;2.03;;;;;;;14.43;82.08;100938.81;5033118;28;20029;-55
2022/08/25 04:21:22;;;;;;;2.30;2.03;;;;;;;14.44;82.30;100940.47;5033171;28;20116;-55
2022/08/25 04:23:50;;;;;;;2.70;2.25;;;;;;;14.36;82.63;100948.88;5032302;28;20095;-55
2022/08/25 04:26:21;;;;;;;2.13;1.92;;;;;;;14.25;83.02;100947.75;5032169;28;20018;-56
2022/08/25 04:28:48;;;;;;;2.75;2.30;;;;;;;14.39;82.08;100948.41;5032431;28;20026;-55
2022/08/25 04:31:17;;;;;;;2.72;2.05;;;;;;;14.34;82.34;100947.47;5032417;28;20068;-55
2022/08/25 04:33:44;;;;;;;3.88;2.33;;;;;;;14.29;82.85;100953.53;5032295;28;20490;-56
2022/08/25 04:36:11;;;;;;;2.60;2.40;;;;;;;14.33;82.79;100945.81;5032421;28;20095;-56
2022/08/25 04:38:39;;;;;;;4.97;3.20;;;;;;;14.31;82.40;100947.91;5032557;28;20487;-54
2022/08/25 04:41:07;;;;;;;5.40;3.00;;;;;;;14.26;82.66;100953.97;5032140;28;20037;-55
2022/08/25 04:43:35;;;;;;;4.70;3.05;;;;;;;14.26;82.01;100951.28;5032337;28;20505;-54
2022/08/25 04:46:06;;;;;;;4.43;3.30;;;;;;;14.08;82.36;100954.81;5032382;28;20495;-55
2022/08/25 04:48:33;;;;;;;5.07;3.00;;;;;;;14.15;82.52;100957.44;5032290;28;20164;-55
2022/08/25 04:51:07;;;;;;;4.80;2.83;;;;;;;14.12;82.75;100964.09;5032111;28;20040;-55
2022/08/25 04:53:35;;;;;;;4.97;4.05;;;;;;;14.03;83.04;100970.00;5032172;28;20152;-55
2022/08/25 04:56:01;;;;;;;5.75;4.57;;;;;;;14.02;83.26;100963.00;5032128;28;20159;-55
2022/08/25 04:58:27;;;;;;;7.20;4.07;;;;;;;13.93;83.85;100971.34;5031990;28;20025;-55
2022/08/25 05:01:03;;;;;;;6.15;4.40;;;;;;;13.95;83.95;100985.41;5031941;28;20030;-57
2022/08/25 05:03:30;;;;;;;5.57;3.90;;;;;;;13.84;84.56;100979.97;5032432;28;20021;-56
2022/08/25 05:05:57;;;;;;;3.20;2.83;;;;;;;13.92;84.19;100979.66;5032878;28;20025;-54
2022/08/25 05:08:23;;;;;;;6.28;3.17;;;;;;;14.04;84.08;100972.47;5032051;28;20026;-55
2022/08/25 05:10:49;;;;;;;4.18;3.65;;;;;;;14.02;83.92;100979.13;5031791;28;20022;-55
2022/08/25 05:13:16;;;;;;;4.90;3.25;;;;;;;14.05;83.85;100981.34;5032300;28;20406;-54
2022/08/25 05:15:51;;;;;;;3.63;2.40;;;;;;;13.99;83.72;100981.25;5031924;28;20039;-55
2022/08/25 05:18:20;;;;;;;3.33;2.15;;;;;;;14.00;83.37;100985.56;5032337;28;20028;-55
2022/08/25 05:20:46;;;;;;;3.25;2.55;;;;;;;14.02;83.43;100997.97;5031622;28;20056;-55
2022/08/25 05:23:12;;;;;;;3.42;2.35;;;;;;;14.03;83.76;100991.53;5031708;28;20141;-54
2022/08/25 05:25:39;;;;;;;3.70;2.47;;;;;;;14.06;83.79;100996.50;5031756;28;20392;-55
2022/08/25 05:28:05;;;;;;;2.70;2.20;;;;;;;14.13;83.36;101000.72;5031941;28;20104;-55
2022/08/25 05:30:31;;;;;;;3.05;2.15;;;;;;;14.09;82.95;101002.22;5031947;28;20502;-55
2022/08/25 05:32:57;;;;;;;2.30;1.77;;;;;;;14.14;82.73;101004.25;5031661;28;20030;-55
2022/08/25 05:35:24;;;;;;;3.90;2.15;;;;;;;14.12;82.72;101003.66;5031579;28;20025;-55
2022/08/25 05:37:50;;;;;;;2.25;1.98;;;;;;;14.17;82.62;101007.31;5033496;28;20123;-55
2022/08/25 05:40:16;;;;;;;3.97;2.17;;;;;;;14.23;82.30;101011.78;5035342;28;20022;-54
2022/08/25 05:42:42;;;;;;;2.58;2.05;;;;;;;14.18;82.87;101014.34;5035313;28;20029;-55
2022/08/25 05:45:09;;;;;;;2.33;2.08;;;;;;;14.18;82.97;101006.25;5035075;28;20025;-56
2022/08/25 05:47:35;;;;;;;3.15;2.38;;;;;;;14.22;82.92;101007.47;5035047;28;20117;-55
2022/08/25 05:50:01;;;;;;;3.28;2.42;;;;;;;14.15;82.92;101012.09;5035414;28;20481;-55
2022/08/25 05:52:27;;;;;;;4.13;2.22;;;;;;;14.13;83.25;101003.41;5034818;28;20029;-55
2022/08/25 05:54:54;;;;;;;5.93;2.33;;;;;;;14.08;83.53;101010.53;5035191;28;20083;-54
2022/08/25 05:57:20;;;;;;;2.95;2.05;;;;;;;14.05;83.69;101016.34;5034785;28;20021;-56
2022/08/25 05:59:46;;;;;;;2.58;1.85;;;;;;;13.93;84.24;101013.59;5035184;28;20087;-55
2022/08/25 06:04:57;;;;;;;3.25;2.30;;;;;;;14.06;84.14;101009.94;5035181;28;20434;-55
2022/08/25 06:07:24;;;;;;;3.13;2.25;;;;;;;14.12;83.97;101011.72;5034743;28;20117;-55
2022/08/25 06:09:50;;;;;;;3.20;1.90;;;;;;;14.10;84.12;101011.97;5034504;28;20033;-55
2022/08/25 06:12:17;;;;;;;2.67;1.95;;;;;;;14.22;83.46;101006.66;5034890;28;20038;-55
2022/08/25 06:14:44;;;;;;;1.77;1.50;;;;;;;14.23;82.83;101008.28;5034568;28;20028;-55
2022/08/25 06:17:10;;;;;;;3.58;1.90;;;;;;;14.12;83.17;101017.94;5034644;28;20017;-55
2022/08/25 06:19:36;;;;;;;2.35;1.67;;;;;;;14.20;83.11;101009.53;5034548;28;20065;-55
2022/08/25 06:22:03;;;;;;;2.75;1.80;;;;;;;14.26;83.14;101018.59;5034441;28;20045;-55
2022/08/25 06:24:29;;;;;;;2.05;1.45;;;;;;;14.21;83.42;101026.50;5034743;28;20101;-55
2022/08/25 06:26:56;;;;;;;2.13;1.25;;;;;;;14.20;82.97;101033.78;5034563;28;20156;-55
2022/08/25 06:29:23;;;;;;;1.70;1.30;;;;;;;14.22;82.96;101022.81;5034278;28;20026;-55
2022/08/25 06:31:49;;;;;;;1.95;1.40;;;;;;;14.27;82.71;101036.41;5034268;28;20028;-55
2022/08/25 06:34:17;;;;;;;2.30;1.40;;;;;;;14.31;82.52;101026.00;5034172;28;20062;-55
2022/08/25 06:36:43;;;;;;;2.33;1.27;;;;;;;14.29;82.59;101028.91;5034483;28;20029;-55
2022/08/25 06:39:10;;;;;;;1.75;1.27;;;;;;;14.28;82.69;101032.66;5034044;28;20104;-55
2022/08/25 06:41:37;;;;;;;1.75;1.40;;;;;;;14.21;82.90;101019.28;5034169;28;20368;-55
2022/08/25 06:44:04;;;;;;;2.78;1.30;;;;;;;14.28;82.93;101021.91;5033982;28;20022;-55
2022/08/25 06:46:31;;;;;;;1.63;1.10;;;;;;;14.34;82.83;101017.47;5034169;28;20049;-54
2022/08/25 06:48:57;;;;;;;1.50;1.17;;;;;;;14.33;83.17;101019.34;5033733;28;20022;-55
2022/08/25 06:51:25;;;;;;;1.65;1.20;;;;;;;14.38;82.83;101018.63;5033902;28;20490;-58
2022/08/25 06:53:52;;;;;;;1.23;1.10;;;;;;;14.31;83.25;101010.66;5033938;28;20030;-55
2022/08/25 06:56:20;;;;;;;2.90;1.58;;;;;;;14.31;83.28;101013.34;5034060;28;20025;-55
2022/08/25 06:58:47;;;;;;;3.65;1.50;;;;;;;14.35;83.38;101017.25;5034235;28;20490;-55
2022/08/25 07:01:20;;;;;;;1.50;1.13;;;;;;;14.46;82.84;101024.56;5034142;28;20033;-55
2022/08/25 07:03:50;;;;;;;2.40;1.20;;;;;;;14.43;82.75;101025.00;5034013;28;20021;-55
2022/08/25 07:06:17;;;;;;;1.58;1.23;;;;;;;14.44;83.10;101032.03;5034025;28;20083;-55
2022/08/25 07:08:44;;;;;;;1.83;1.20;;;;;;;14.44;83.11;101021.28;5033980;28;20025;-55
2022/08/25 07:11:13;;;;;;;1.58;1.20;;;;;;;14.43;83.45;101029.56;5033660;28;20475;-55
2022/08/25 07:13:40;;;;;;;2.75;1.10;;;;;;;14.41;83.68;101028.97;5033465;28;20029;-55
2022/08/25 07:16:06;;;;;;;5.43;1.65;;;;;;;14.47;82.97;101038.88;5033242;28;20032;-56
2022/08/25 07:18:34;;;;;;;1.85;1.13;;;;;;;14.53;82.73;101035.25;5033307;28;20030;-55
2022/08/25 07:21:00;;;;;;;3.40;1.13;;;;;;;14.39;83.09;101031.91;5033577;28;20099;-55
2022/08/25 07:23:27;;;;;;;2.35;1.20;;;;;;;14.47;82.93;101033.47;5033279;28;20058;-55
2022/08/25 07:25:54;;;;;;;1.10;0.80;;;;;;;14.56;83.05;101029.44;5033176;28;20032;-55
2022/08/25 07:28:22;;;;;;;1.95;1.15;;;;;;;14.58;83.09;101031.91;5033604;28;20040;-55
2022/08/25 07:30:50;;;;;;;2.88;1.00;;;;;;;14.62;83.33;101033.09;5033507;28;20359;-56
2022/08/25 07:33:16;;;;;;;1.38;1.13;;;;;;;14.67;82.72;101030.53;5033139;28;20377;-55
2022/08/25 07:35:43;;;;;;;3.83;1.15;;;;;;;14.60;82.94;101033.28;5033158;28;20029;-56
2022/08/25 07:38:09;;;;;;;1.42;1.10;;;;;;;14.68;82.56;101033.00;5032977;28;20050;-56
2022/08/25 07:40:37;;;;;;;1.63;1.08;;;;;;;14.71;82.09;101032.56;5033010;28;20030;-56
2022/08/25 07:43:07;;;;;;;1.52;0.90;;;;;;;14.64;81.98;101036.38;5033080;28;20044;-55
2022/08/25 07:45:37;;;;;;;2.13;1.00;;;;;;;14.58;82.77;101032.72;5033162;28;20117;-56
2022/08/25 07:48:07;;;;;;;1.67;0.90;;;;;;;14.60;83.25;101038.69;5032921;28;20446;-55
2022/08/25 07:50:37;;;;;;;1.98;0.98;;;;;;;14.63;82.95;101046.31;5033014;28;20056;-54
2022/08/25 07:53:04;;;;;;;2.55;1.27;;;;;;;14.69;82.99;101045.41;5032570;28;20112;-55
2022/08/25 07:55:31;;;;;;;1.65;1.20;;;;;;;14.73;82.83;101043.91;5032940;28;20402;-55
2022/08/25 07:58:00;;;;;;;2.05;1.05;;;;;;;14.70;82.91;101040.84;5032929;28;20025;-55
2022/08/25 08:00:29;;;;;;;1.83;1.10;;;;;;;14.66;82.85;101039.69;5032250;28;20025;-55
2022/08/25 08:03:00;;;;;;;1.38;1.00;;;;;;;14.82;82.36;101041.69;5032752;28;20052;-56
2022/08/25 08:05:27;;;;;;;1.77;0.98;;;;;;;14.79;82.56;101044.88;5032841;28;20029;-55
2022/08/25 08:07:54;;;;;;;2.78;0.98;;;;;;;14.78;82.43;101045.94;5032859;28;20033;-55
2022/08/25 08:10:21;;;;;;;2.75;0.90;;;;;;;14.78;82.55;101043.22;5032534;28;20124;-55
2022/08/25 08:12:48;;;;;;;0.90;0.80;;;;;;;14.78;82.55;101048.63;5032812;28;20036;-55
2022/08/25 08:15:15;;;;;;;2.08;1.15;;;;;;;14.79;82.82;101053.78;5032389;28;20025;-55
2022/08/25 08:17:41;;;;;;;1.23;1.00;;;;;;;14.70;83.18;101046.22;5032856;28;20105;-55
2022/08/25 08:20:09;;;;;;;4.75;1.30;;;;;;;14.75;83.21;101039.09;5032374;28;20146;-55
2022/08/25 08:22:41;;;;;;;1.25;1.02;;;;;;;14.80;82.88;101046.50;5032270;28;20045;-56
2022/08/25 08:25:09;;;;;;;1.75;0.90;;;;;;;14.80;82.67;101049.19;5033141;28;20025;-54
2022/08/25 08:27:36;;;;;;;2.13;0.90;;;;;;;14.82;82.88;101049.78;5032501;28;20025;-55
2022/08/25 08:30:04;;;;;;;1.67;1.10;;;;;;;14.89;82.53;101050.53;5032370;28;20076;-56
2022/08/25 08:32:31;;;;;;;0.65;0.63;;;;;;;14.83;83.00;101051.47;5032205;28;20034;-55
2022/08/25 08:34:57;;;;;;;2.25;0.80;;;;;;;14.84;82.59;101046.88;5032385;28;20021;-55
2022/08/25 08:37:23;;;;;;;1.65;0.70;;;;;;;14.77;82.50;101049.69;5032140;28;20101;-55
2022/08/25 08:39:51;;;;;;;1.13;0.65;;;;;;;14.64;83.08;101047.97;5032424;28;20022;-56
2022/08/25 08:42:41;;;;;;;1.83;0.90;;;;;;;14.65;83.24;101051.47;5032125;28;20045;-56
2022/08/25 08:45:44;;;;;;;2.53;1.00;;;;;;;14.65;83.16;101046.09;5032289;28;20049;-55
2022/08/25 08:48:35;;;;;;;1.25;0.98;;;;;;;14.70;83.15;101047.06;5032488;28;20029;-56
2022/08/25 08:51:13;;;;;;;1.60;0.88;;;;;;;14.84;82.87;101047.69;5032234;28;20040;-56
2022/08/25 08:53:48;;;;;;;1.65;0.80;;;;;;;14.75;83.04;101044.50;5032121;28;20041;-55
2022/08/25 08:56:35;;;;;;;4.18;1.05;;;;;;;14.88;83.09;101043.50;5032740;28;20494;-55
2022/08/25 08:59:08;;;;;;;3.30;0.93;;;;;;;14.86;82.75;101045.59;5032266;28;20029;-55
2022/08/25 09:01:43;;;;;;;1.67;1.10;;;;;;;14.89;82.52;101045.16;5032181;28;20033;-56
2022/08/25 09:04:29;;;;;;;2.45;0.90;;;;;;;14.88;82.94;101040.81;5032456;28;20029;-56
2022/08/25 09:06:58;;;;;;;1.58;0.80;;;;;;;14.87;82.46;101043.72;5032160;28;20029;-55
2022/08/25 09:09:33;;;;;;;0.52;0.52;;;;;;;14.77;82.60;101045.09;5031833;28;20422;-56
2022/08/25 09:12:17;;;;;;;1.52;0.90;;;;;;;14.82;82.44;101055.16;5034202;28;20028;-56
2022/08/25 09:15:04;;;;;;;1.10;0.63;;;;;;;14.76;82.57;101056.09;5035837;28;20502;-55
2022/08/25 09:18:05;;;;;;;1.08;0.70;;;;;;;14.63;82.76;101058.97;5035754;28;20018;-56
2022/08/25 09:21:02;;;;;;;2.40;0.50;;;;;;;14.83;81.89;101056.03;5035754;28;20092;-55
2022/08/25 09:23:39;;;;;;;1.17;0.60;;;;;;;14.77;82.01;101057.75;5021274;28;20049;-55
2022/08/25 09:26:29;;;;;;;1.73;0.50;;;;;;;14.83;82.09;101064.94;5035745;28;20021;-54
2022/08/25 09:29:05;;;;;;;1.85;0.80;;;;;;;14.72;82.50;101057.63;5035689;28;20048;-55
2022/08/25 09:31:37;;;;;;;2.42;0.50;;;;;;;14.83;82.58;101054.16;5035552;28;20036;-55
2022/08/25 09:34:10;;;;;;;1.48;0.82;;;;;;;14.82;82.27;101060.56;5035317;28;20037;-56
2022/08/25 09:36:36;;;;;;;0.95;0.60;;;;;;;14.90;82.40;101062.94;5035769;28;20033;-55
2022/08/25 09:39:03;;;;;;;0.95;0.57;;;;;;;14.87;82.71;101058.00;5035275;28;20055;-55
2022/08/25 09:41:48;;;;;;;3.33;0.75;;;;;;;14.83;82.81;101062.22;5035368;28;20103;-56
2022/08/25 09:44:23;;;;;;;2.08;0.95;;;;;;;14.80;82.53;101057.28;5035332;28;20087;-58
2022/08/25 09:47:06;;;;;;;1.38;0.70;;;;;;;14.79;82.56;101061.03;5036065;28;20108;-56
2022/08/25 09:50:13;;;;;;;1.65;0.95;;;;;;;14.87;83.01;101058.00;5035450;28;20033;-55
2022/08/25 09:52:43;;;;;;;1.42;0.77;;;;;;;14.85;83.04;101065.50;4993622;28;20042;-55
2022/08/25 09:55:15;;;;;;;0.88;0.50;;;;;;;14.86;82.58;101072.53;5028887;28;20038;-55
2022/08/25 09:57:48;;;;;;;2.13;0.50;;;;;;;14.81;82.21;101071.59;5035172;28;20053;-55
2022/08/25 10:00:18;;;;;;;0.88;0.50;;;;;;;14.82;82.29;101067.81;5035020;28;20056;-55
2022/08/25 10:03:02;;;;;;;1.38;0.75;;;;;;;14.91;81.76;101071.84;5034792;28;20036;-55
2022/08/25 10:05:33;;;;;;;1.25;0.80;;;;;;;14.79;82.69;101082.59;5034919;28;20048;-55
2022/08/25 10:08:09;;;;;;;3.17;0.63;;;;;;;14.89;82.28;101087.44;5034710;28;20029;-55
2022/08/25 10:10:52;;;;;;;1.05;0.68;;;;;;;14.86;82.18;101079.81;5034992;28;20108;-55
2022/08/25 10:13:19;;;;;;;1.35;0.40;;;;;;;14.92;82.01;101082.41;5034633;28;20056;-55
2022/08/25 10:15:47;;;;;;;2.10;0.60;;;;;;;14.90;81.85;101094.47;5034891;28;20444;-56
2022/08/25 10:18:28;;;;;;;1.58;0.50;;;;;;;14.95;81.63;101097.31;5034688;28;20029;-56
2022/08/25 10:21:06;;;;;;;1.75;0.60;;;;;;;14.98;81.96;101092.25;5034701;28;20030;-56
2022/08/25 10:23:37;;;;;;;2.83;0.82;;;;;;;14.85;82.34;101084.38;5033711;28;20045;-56
2022/08/25 10:26:12;;;;;;;1.05;0.50;;;;;;;14.90;82.36;101078.31;5034494;28;20033;-56
2022/08/25 10:29:05;;;;;;;0.63;0.32;;;;;;;15.02;81.71;101088.06;5034420;28;20026;-56
2022/08/25 10:31:55;;;;;;;0.85;0.50;;;;;;;14.95;81.96;101087.34;5034956;28;20053;-56
2022/08/25 10:34:47;;;;;;;1.17;0.60;;;;;;;15.00;81.54;101095.56;5034756;28;20033;-56
2022/08/25 10:37:34;;;;;;;1.30;0.47;;;;;;;15.03;81.26;101091.59;5034254;28;20046;-56
2022/08/25 10:40:18;;;;;;;0.93;0.50;;;;;;;15.12;81.08;101094.78;5034768;28;20037;-56
2022/08/25 10:43:01;;;;;;;1.23;0.50;;;;;;;15.03;81.69;101097.78;5034239;28;20048;-55
2022/08/25 10:45:44;;;;;;;0.60;0.50;;;;;;;15.05;81.63;101102.97;5034252;28;20160;-56
2022/08/25 10:48:31;;;;;;;0.85;0.50;;;;;;;15.10;82.12;101099.56;5034142;28;20029;-56
2022/08/25 10:51:05;;;;;;;0.82;0.73;;;;;;;15.08;82.03;101105.19;5034111;28;20030;-56
2022/08/25 10:53:34;;;;;;;1.08;0.43;;;;;;;15.14;81.91;101111.56;5034068;28;20040;-56
2022/08/25 10:56:06;;;;;;;1.60;0.60;;;;;;;15.17;81.54;101113.81;5034891;28;20033;-55
2022/08/25 10:59:29;;;;;;;1.02;0.50;;;;;;;15.13;81.37;101112.59;5033841;28;20029;-55
2022/08/25 11:02:29;;;;;;;0.60;0.38;;;;;;;15.03;81.96;101110.44;4992144;28;20069;-55
2022/08/25 11:05:11;;;;;;;1.33;0.32;;;;;;;14.95;82.86;101110.78;4992469;28;20058;-56
2022/08/25 11:07:44;;;;;;;0.55;0.50;;;;;;;15.02;82.77;101109.63;5031167;28;20043;-55
2022/08/25 11:10:38;;;;;;;1.05;0.50;;;;;;;15.15;82.28;101113.19;5033644;28;20448;-56
2022/08/25 11:13:14;;;;;;;1.23;0.63;;;;;;;15.17;82.72;101106.53;5033380;28;20068;-56
2022/08/25 11:15:53;;;;;;;1.70;0.70;;;;;;;15.08;83.21;101109.78;5033479;28;20057;-56
2022/08/25 11:18:21;;;;;;;2.28;0.77;;;;;;;15.14;82.27;101112.38;5033598;28;20032;-54
2022/08/25 11:20:47;;;;;;;2.45;0.90;;;;;;;15.12;82.52;101111.78;5033499;28;20109;-56
2022/08/25 11:23:32;;;;;;;2.08;0.70;;;;;;;15.07;82.41;101105.44;5033120;28;20069;-55
2022/08/25 11:26:06;;;;;;;2.10;0.88;;;;;;;14.99;83.25;101107.41;5033265;28;20051;-55
2022/08/25 11:28:35;;;;;;;0.57;0.50;;;;;;;15.05;83.79;101101.09;5033402;28;20030;-56
2022/08/25 11:31:03;;;;;;;1.13;0.50;;;;;;;15.09;83.61;101098.75;5033385;28;20095;-56
2022/08/25 11:33:30;;;;;;;1.92;1.13;;;;;;;15.11;83.25;101103.94;5033087;28;20084;-56
2022/08/25 11:36:04;;;;;;;3.47;0.80;;;;;;;15.09;82.82;101101.44;5032461;28;20025;-56
2022/08/25 11:38:30;;;;;;;1.20;0.65;;;;;;;15.05;83.31;101111.88;5033055;28;20028;-55
2022/08/25 11:41:26;;;;;;;2.83;0.75;;;;;;;15.11;82.95;101112.03;5033301;28;20045;-55
2022/08/25 11:43:55;;;;;;;2.15;0.73;;;;;;;15.13;82.79;101109.91;5033143;28;20375;-55